createdAt,value
2022-10-31T00:02:23.166Z,11.90
2022-10-31T00:04:49.722Z,11.88
2022-10-31T00:07:16.250Z,11.89
2022-10-31T00:09:42.816Z,11.81
2022-10-31T00:12:09.348Z,11.75
2022-10-31T00:14:35.874Z,11.75
2022-10-31T00:17:03.203Z,11.64
2022-10-31T00:19:29.723Z,11.61
2022-10-31T00:21:56.262Z,11.52
2022-10-31T00:24:22.795Z,11.49
2022-10-31T00:26:49.394Z,11.49
2022-10-31T00:29:15.984Z,11.55
2022-10-31T00:31:42.515Z,11.55
2022-10-31T00:34:09.825Z,11.53
2022-10-31T00:36:37.431Z,11.52
2022-10-31T00:39:04.019Z,11.46
2022-10-31T00:41:30.846Z,11.45
2022-10-31T00:43:57.533Z,11.41
2022-10-31T00:46:24.093Z,11.46
2022-10-31T00:48:51.081Z,11.40
2022-10-31T00:51:17.823Z,11.45
2022-10-31T00:53:44.470Z,11.44
2022-10-31T00:56:11.084Z,11.38
2022-10-31T00:58:37.912Z,11.39
2022-10-31T01:01:05.780Z,11.42
2022-10-31T01:03:33.260Z,11.50
2022-10-31T01:06:07.798Z,11.51
2022-10-31T01:08:37.873Z,11.39
2022-10-31T01:11:13.772Z,11.41
2022-10-31T01:13:41.028Z,11.37
2022-10-31T01:16:08.337Z,11.38
2022-10-31T01:18:34.956Z,11.43
2022-10-31T01:21:06.093Z,11.51
2022-10-31T01:23:33.130Z,11.50
2022-10-31T01:26:20.550Z,11.57
2022-10-31T01:28:57.576Z,11.59
2022-10-31T01:31:25.649Z,11.58
2022-10-31T01:33:52.907Z,11.51
2022-10-31T01:36:19.658Z,11.51
2022-10-31T01:38:47.245Z,11.52
2022-10-31T01:41:15.016Z,11.53
2022-10-31T01:43:45.510Z,11.57
2022-10-31T01:46:12.490Z,11.57
2022-10-31T01:48:42.232Z,11.53
2022-10-31T01:51:12.517Z,11.58
2022-10-31T01:53:39.953Z,11.56
2022-10-31T01:56:06.990Z,11.54
2022-10-31T01:58:33.558Z,11.57
2022-10-31T02:01:04.832Z,11.58
2022-10-31T02:03:34.385Z,11.53
2022-10-31T02:06:01.027Z,11.52
2022-10-31T02:08:31.539Z,11.34
2022-10-31T02:10:59.198Z,11.40
2022-10-31T02:15:54.473Z,11.39
2022-10-31T02:18:21.821Z,11.38
2022-10-31T02:20:52.486Z,11.40
2022-10-31T02:23:38.198Z,11.42
2022-10-31T02:26:13.243Z,11.49
2022-10-31T02:28:42.901Z,11.50
2022-10-31T02:31:24.713Z,11.50
2022-10-31T02:34:00.187Z,11.44
2022-10-31T02:36:33.262Z,11.46
2022-10-31T02:39:03.072Z,11.53
2022-10-31T02:41:44.922Z,11.57
2022-10-31T02:44:17.940Z,11.56
2022-10-31T02:46:44.535Z,11.52
2022-10-31T02:49:17.562Z,11.52
2022-10-31T02:51:44.563Z,11.57
2022-10-31T02:54:18.685Z,11.52
2022-10-31T02:56:45.339Z,11.46
2022-10-31T02:59:12.004Z,11.59
2022-10-31T03:01:48.761Z,11.61
2022-10-31T03:04:28.543Z,11.67
2022-10-31T03:06:55.111Z,11.71
2022-10-31T03:09:21.740Z,11.76
2022-10-31T03:11:58.990Z,11.76
2022-10-31T03:14:36.131Z,11.73
2022-10-31T03:17:06.316Z,11.70
2022-10-31T03:19:40.232Z,11.70
2022-10-31T03:22:22.275Z,11.74
2022-10-31T03:24:52.082Z,11.62
2022-10-31T03:27:23.354Z,11.60
2022-10-31T03:29:51.555Z,11.60
2022-10-31T03:32:21.091Z,11.57
2022-10-31T03:34:48.470Z,11.59
2022-10-31T03:37:17.867Z,11.54
2022-10-31T03:39:45.464Z,11.53
2022-10-31T03:42:14.711Z,11.56
2022-10-31T03:44:44.250Z,11.57
2022-10-31T03:47:11.318Z,11.60
2022-10-31T03:49:38.234Z,11.53
2022-10-31T03:52:14.211Z,11.54
2022-10-31T03:54:58.151Z,11.52
2022-10-31T03:57:46.516Z,11.52
2022-10-31T04:00:30.984Z,11.52
2022-10-31T04:03:16.903Z,11.56
2022-10-31T04:06:02.385Z,11.62
2022-10-31T04:08:47.714Z,11.63
2022-10-31T04:11:39.462Z,11.67
2022-10-31T04:14:45.711Z,11.64
2022-10-31T04:17:30.065Z,11.60
2022-10-31T04:20:12.338Z,11.57
2022-10-31T04:22:54.949Z,11.57
2022-10-31T04:25:36.530Z,11.53
2022-10-31T04:31:00.929Z,11.60
2022-10-31T04:33:43.490Z,11.56
2022-10-31T04:36:25.029Z,11.55
2022-10-31T04:39:08.560Z,11.60
2022-10-31T04:41:57.610Z,11.60
2022-10-31T04:44:39.584Z,11.62
2022-10-31T04:47:21.215Z,11.66
2022-10-31T04:50:03.268Z,11.70
2022-10-31T04:52:47.149Z,11.64
2022-10-31T04:55:32.176Z,11.62
2022-10-31T04:58:39.674Z,11.59
2022-10-31T05:01:23.839Z,11.60
2022-10-31T05:04:05.467Z,11.48
2022-10-31T05:06:47.766Z,11.42
2022-10-31T05:09:29.336Z,11.42
2022-10-31T05:12:10.833Z,11.38
2022-10-31T05:15:11.184Z,11.35
2022-10-31T05:18:27.741Z,11.37
2022-10-31T05:21:27.779Z,11.42
2022-10-31T05:24:13.984Z,11.49
2022-10-31T05:27:01.328Z,11.54
2022-10-31T05:29:42.839Z,11.53
2022-10-31T05:32:24.406Z,11.52
2022-10-31T05:35:29.713Z,11.51
2022-10-31T05:38:43.561Z,11.53
2022-10-31T05:41:45.367Z,11.43
2022-10-31T05:44:32.737Z,11.47
2022-10-31T05:47:34.468Z,11.47
2022-10-31T05:50:44.960Z,11.50
2022-10-31T05:53:26.961Z,11.47
2022-10-31T05:56:08.586Z,11.51
2022-10-31T05:58:51.044Z,11.49
2022-10-31T06:01:32.649Z,11.51
2022-10-31T06:04:20.384Z,11.51
2022-10-31T06:07:02.301Z,11.49
2022-10-31T06:09:47.369Z,11.45
2022-10-31T06:12:30.864Z,11.41
2022-10-31T06:15:28.649Z,11.52
2022-10-31T06:18:14.559Z,11.46
2022-10-31T06:21:02.353Z,11.50
2022-10-31T06:23:47.971Z,11.48
2022-10-31T06:27:58.785Z,11.51
2022-10-31T06:30:52.068Z,11.48
2022-10-31T06:33:37.745Z,11.43
2022-10-31T06:36:23.721Z,11.39
2022-10-31T06:39:11.581Z,11.41
2022-10-31T06:41:56.908Z,11.50
2022-10-31T06:44:42.575Z,11.54
2022-10-31T06:48:15.670Z,11.63
2022-10-31T06:51:01.315Z,11.56
2022-10-31T06:53:46.442Z,11.53
2022-10-31T06:56:34.427Z,11.53
2022-10-31T06:59:20.546Z,11.51
2022-10-31T07:02:24.050Z,11.47
2022-10-31T07:05:09.655Z,11.46
2022-10-31T07:07:58.970Z,11.54
2022-10-31T07:10:51.755Z,11.58
2022-10-31T07:13:37.176Z,11.62
2022-10-31T07:16:25.936Z,11.51
2022-10-31T07:19:10.875Z,11.44
2022-10-31T07:21:55.944Z,11.49
2022-10-31T07:24:43.087Z,11.62
2022-10-31T07:27:54.556Z,11.74
2022-10-31T07:30:40.170Z,11.73
2022-10-31T07:33:28.392Z,11.69
2022-10-31T07:36:33.319Z,11.71
2022-10-31T07:39:22.706Z,11.74
2022-10-31T07:42:08.104Z,11.74
2022-10-31T07:44:56.833Z,11.87
2022-10-31T07:48:03.678Z,11.84
2022-10-31T07:51:08.030Z,11.78
2022-10-31T07:54:31.555Z,11.90
2022-10-31T07:57:18.337Z,11.84
2022-10-31T08:00:06.177Z,11.86
2022-10-31T08:03:04.969Z,11.85
2022-10-31T08:06:08.735Z,11.96
2022-10-31T08:09:25.890Z,12.06
2022-10-31T08:12:11.696Z,12.09
2022-10-31T08:14:57.072Z,12.01
2022-10-31T08:17:42.357Z,12.02
2022-10-31T08:20:29.543Z,12.06
2022-10-31T08:23:15.374Z,12.12
2022-10-31T08:26:01.649Z,12.11
2022-10-31T08:28:47.532Z,12.14
2022-10-31T08:31:35.789Z,12.18
2022-10-31T08:34:42.777Z,12.28
2022-10-31T08:37:45.750Z,12.34
2022-10-31T08:40:31.601Z,12.36
2022-10-31T08:43:17.941Z,12.36
2022-10-31T08:46:03.997Z,12.41
2022-10-31T08:48:49.533Z,12.40
2022-10-31T08:51:36.301Z,12.41
2022-10-31T08:54:21.939Z,12.43
2022-10-31T08:57:12.889Z,12.49
2022-10-31T09:00:02.151Z,12.50
2022-10-31T09:03:04.182Z,12.49
2022-10-31T09:05:51.889Z,12.51
2022-10-31T09:08:37.739Z,12.49
2022-10-31T09:11:22.932Z,12.45
2022-10-31T09:14:46.620Z,12.50
2022-10-31T09:17:48.856Z,12.50
2022-10-31T09:20:49.844Z,12.48
2022-10-31T09:23:35.800Z,12.43
2022-10-31T09:26:21.226Z,12.42
2022-10-31T09:29:24.709Z,12.50
2022-10-31T09:32:15.988Z,12.56
2022-10-31T09:35:04.897Z,12.59
2022-10-31T09:37:54.950Z,12.65
2022-10-31T09:40:45.096Z,12.60
2022-10-31T09:43:40.794Z,12.55
2022-10-31T09:46:28.612Z,12.64
2022-10-31T09:49:33.768Z,12.47
2022-10-31T09:52:28.940Z,12.52
2022-10-31T09:55:20.378Z,12.38
2022-10-31T09:58:05.797Z,12.44
2022-10-31T10:00:51.250Z,12.55
2022-10-31T10:03:42.273Z,12.66
2022-10-31T10:06:50.267Z,12.71
2022-10-31T10:09:54.082Z,12.78
2022-10-31T10:13:17.106Z,12.79
2022-10-31T10:16:08.642Z,12.82
2022-10-31T10:18:56.934Z,12.95
2022-10-31T10:22:00.669Z,13.07
2022-10-31T10:25:01.190Z,13.07
2022-10-31T10:27:57.568Z,13.11
2022-10-31T10:30:45.405Z,13.14
2022-10-31T10:33:41.243Z,13.19
2022-10-31T10:36:35.539Z,13.25
2022-10-31T10:39:29.131Z,13.21
2022-10-31T10:42:33.858Z,13.20
2022-10-31T10:45:39.125Z,13.19
2022-10-31T10:48:29.732Z,13.11
2022-10-31T10:51:39.007Z,13.11
2022-10-31T10:54:47.534Z,13.06
2022-10-31T10:57:35.325Z,12.98
2022-10-31T11:00:24.724Z,12.95
2022-10-31T11:03:10.638Z,12.99
2022-10-31T11:06:01.618Z,12.98
2022-10-31T11:08:46.993Z,13.06
2022-10-31T11:11:32.936Z,12.92
2022-10-31T11:14:18.614Z,12.87
2022-10-31T11:17:12.051Z,12.79
2022-10-31T11:20:23.729Z,12.85
2022-10-31T11:23:19.036Z,12.78
2022-10-31T11:26:06.123Z,12.68
2022-10-31T11:28:58.550Z,12.58
2022-10-31T11:31:45.128Z,12.55
2022-10-31T11:34:32.034Z,12.59
2022-10-31T11:37:19.928Z,12.65
2022-10-31T11:40:06.554Z,12.60
2022-10-31T11:42:52.904Z,12.71
2022-10-31T11:45:39.081Z,12.72
2022-10-31T11:48:25.339Z,12.78
2022-10-31T11:51:10.565Z,12.80
2022-10-31T11:54:00.150Z,12.81
2022-10-31T11:56:48.181Z,12.90
2022-10-31T11:59:33.606Z,12.96
2022-10-31T12:02:20.111Z,12.97
2022-10-31T12:05:23.968Z,12.97
2022-10-31T12:08:11.146Z,12.93
2022-10-31T12:11:02.248Z,12.83
2022-10-31T12:14:06.884Z,12.84
2022-10-31T12:16:52.572Z,12.83
2022-10-31T12:19:37.820Z,12.74
2022-10-31T12:22:38.193Z,12.69
2022-10-31T12:25:42.579Z,12.64
2022-10-31T12:28:45.406Z,12.58
2022-10-31T12:31:37.319Z,12.62
2022-10-31T12:34:31.564Z,12.72
2022-10-31T12:37:21.542Z,12.76
2022-10-31T12:40:06.546Z,12.81
2022-10-31T12:43:10.256Z,12.86
2022-10-31T12:45:56.379Z,12.78
2022-10-31T12:49:00.003Z,12.68
2022-10-31T12:51:51.339Z,12.56
2022-10-31T12:54:36.379Z,12.50
2022-10-31T12:57:28.952Z,12.43
2022-10-31T13:00:17.151Z,12.30
2022-10-31T13:03:10.526Z,12.30
2022-10-31T13:05:58.455Z,12.42
2022-10-31T13:08:46.454Z,12.30
2022-10-31T13:11:34.798Z,12.24
2022-10-31T13:14:33.704Z,12.28
2022-10-31T13:17:35.135Z,12.34
2022-10-31T13:20:31.168Z,12.31
2022-10-31T13:23:49.608Z,12.27
2022-10-31T13:26:43.040Z,12.34
2022-10-31T13:29:32.685Z,12.34
2022-10-31T13:32:18.494Z,12.34
2022-10-31T13:35:04.204Z,12.23
2022-10-31T13:37:55.018Z,12.26
2022-10-31T13:40:51.559Z,12.29
2022-10-31T13:43:55.438Z,12.36
2022-10-31T13:46:44.411Z,12.38
2022-10-31T13:49:29.776Z,12.36
2022-10-31T13:52:24.504Z,12.36
2022-10-31T13:55:29.438Z,12.40
2022-10-31T13:58:23.665Z,12.36
2022-10-31T14:01:14.706Z,12.36
2022-10-31T14:04:12.995Z,12.37
2022-10-31T14:07:07.093Z,12.41
2022-10-31T14:09:51.990Z,12.33
2022-10-31T14:12:42.866Z,12.30
2022-10-31T14:15:28.936Z,12.28
2022-10-31T14:18:22.383Z,12.26
2022-10-31T14:21:25.403Z,12.20
2022-10-31T14:24:26.035Z,12.21
2022-10-31T14:27:20.062Z,12.14
2022-10-31T14:30:16.963Z,12.16
2022-10-31T14:33:14.948Z,12.21
2022-10-31T14:36:19.964Z,12.19
2022-10-31T14:39:25.584Z,12.16
2022-10-31T14:42:13.373Z,12.16
2022-10-31T14:45:10.498Z,12.14
2022-10-31T14:48:11.335Z,12.10
2022-10-31T14:51:00.580Z,12.08
2022-10-31T14:54:05.790Z,12.09
2022-10-31T14:56:54.327Z,12.14
2022-10-31T14:59:41.397Z,12.15
2022-10-31T15:02:39.817Z,12.11
2022-10-31T15:05:27.986Z,12.11
2022-10-31T15:08:31.681Z,11.98
2022-10-31T15:11:19.509Z,11.98
2022-10-31T15:14:18.094Z,11.96
2022-10-31T15:17:03.805Z,11.87
2022-10-31T15:19:49.056Z,11.86
2022-10-31T15:22:33.956Z,11.88
2022-10-31T15:25:23.257Z,11.88
2022-10-31T15:28:23.532Z,11.91
2022-10-31T15:31:17.007Z,11.91
2022-10-31T15:34:08.078Z,11.90
2022-10-31T15:36:53.248Z,11.89
2022-10-31T15:39:38.258Z,11.85
2022-10-31T15:42:25.999Z,11.86
2022-10-31T15:45:12.061Z,11.79
2022-10-31T15:48:02.111Z,11.79
2022-10-31T15:50:49.624Z,11.87
2022-10-31T15:53:37.860Z,11.88
2022-10-31T15:56:11.421Z,11.83
2022-10-31T15:58:46.707Z,11.76
2022-10-31T16:01:32.921Z,11.75
2022-10-31T16:04:08.843Z,11.73
2022-10-31T16:06:35.766Z,11.73
2022-10-31T16:09:02.484Z,11.74
2022-10-31T16:11:29.047Z,11.68
2022-10-31T16:14:00.537Z,11.71
2022-10-31T16:16:36.273Z,11.72
2022-10-31T16:19:04.400Z,11.74
2022-10-31T16:21:38.145Z,11.66
2022-10-31T16:24:16.976Z,11.64
2022-10-31T16:26:48.761Z,11.63
2022-10-31T16:29:44.797Z,11.65
2022-10-31T16:32:24.922Z,11.62
2022-10-31T16:35:09.254Z,11.66
2022-10-31T16:37:39.099Z,11.63
2022-10-31T16:40:05.868Z,11.65
2022-10-31T16:42:32.524Z,11.67
2022-10-31T16:44:59.613Z,11.59
2022-10-31T16:47:28.534Z,11.57
2022-10-31T16:49:55.469Z,11.57
2022-10-31T16:52:22.248Z,11.55
2022-10-31T16:54:50.412Z,11.57
2022-10-31T16:57:18.528Z,11.60
2022-10-31T16:59:47.298Z,11.63
2022-10-31T17:02:15.792Z,11.61
2022-10-31T17:04:42.602Z,11.62
2022-10-31T17:07:09.185Z,11.61
2022-10-31T17:09:35.807Z,11.64
2022-10-31T17:12:02.517Z,11.66
2022-10-31T17:14:29.174Z,11.66
2022-10-31T17:16:57.966Z,11.65
2022-10-31T17:19:24.599Z,11.63
2022-10-31T17:21:51.767Z,11.58
2022-10-31T17:24:18.367Z,11.53
2022-10-31T17:26:44.974Z,11.57
2022-10-31T17:29:11.582Z,11.57
2022-10-31T17:31:39.436Z,11.57
2022-10-31T17:34:06.800Z,11.56
2022-10-31T17:36:33.987Z,11.54
2022-10-31T17:39:00.606Z,11.55
2022-10-31T17:41:27.323Z,11.53
2022-10-31T17:43:57.509Z,11.50
2022-10-31T17:46:24.090Z,11.50
2022-10-31T17:48:50.619Z,11.54
2022-10-31T17:51:17.147Z,11.51
2022-10-31T17:53:43.935Z,11.45
2022-10-31T17:56:10.813Z,11.42
2022-10-31T17:58:37.842Z,11.42
2022-10-31T18:01:09.012Z,11.47
2022-10-31T18:03:35.787Z,11.50
2022-10-31T18:06:02.397Z,11.54
2022-10-31T18:08:29.692Z,11.59
2022-10-31T18:10:56.742Z,11.61
2022-10-31T18:13:23.304Z,11.68
2022-10-31T18:15:49.872Z,11.70
2022-10-31T18:18:16.548Z,11.73
2022-10-31T18:20:43.668Z,11.73
2022-10-31T18:23:10.342Z,11.71
2022-10-31T18:25:38.951Z,11.71
2022-10-31T18:28:06.301Z,11.73
2022-10-31T18:30:33.038Z,11.71
2022-10-31T18:32:59.609Z,11.72
2022-10-31T18:35:26.146Z,11.73
2022-10-31T18:37:52.767Z,11.74
2022-10-31T18:40:19.360Z,11.76
2022-10-31T18:42:45.913Z,11.76
2022-10-31T18:45:31.275Z,11.77
2022-10-31T18:48:00.228Z,11.80
2022-10-31T18:50:27.007Z,11.80
2022-10-31T18:52:53.536Z,11.82
2022-10-31T18:55:20.154Z,11.76
2022-10-31T18:57:46.847Z,11.73
2022-10-31T19:00:17.864Z,11.69
2022-10-31T19:02:44.498Z,11.65
2022-10-31T19:05:11.016Z,11.71
2022-10-31T19:07:37.577Z,11.74
2022-10-31T19:10:04.743Z,11.79
2022-10-31T19:12:32.101Z,11.86
2022-10-31T19:14:59.360Z,11.81
2022-10-31T19:17:25.980Z,11.82
2022-10-31T19:19:53.826Z,11.82
2022-10-31T19:22:20.390Z,11.80
2022-10-31T19:24:46.978Z,11.79
2022-10-31T19:27:13.492Z,11.79
2022-10-31T19:29:42.236Z,11.80
2022-10-31T19:32:09.502Z,11.78
2022-10-31T19:34:36.129Z,11.80
2022-10-31T19:37:02.676Z,11.75
2022-10-31T19:39:29.556Z,11.84
2022-10-31T19:41:56.219Z,11.74
2022-10-31T19:44:22.845Z,11.75
2022-10-31T19:46:53.674Z,11.72
2022-10-31T19:49:20.571Z,11.70
2022-10-31T19:51:48.209Z,11.72
2022-10-31T19:54:14.846Z,11.68
2022-10-31T19:56:41.407Z,11.72
2022-10-31T19:59:08.170Z,11.72
2022-10-31T20:01:34.759Z,11.72
2022-10-31T20:04:01.459Z,11.72
2022-10-31T20:06:32.915Z,11.74
2022-10-31T20:09:01.040Z,11.73
2022-10-31T20:11:28.424Z,11.75
2022-10-31T20:13:55.688Z,11.70
2022-10-31T20:16:22.299Z,11.67
2022-10-31T20:18:48.967Z,11.68
2022-10-31T20:21:26.530Z,11.74
2022-10-31T20:24:00.595Z,11.76
2022-10-31T20:26:27.544Z,11.79
2022-10-31T20:28:58.052Z,11.77
2022-10-31T20:31:28.652Z,11.79
2022-10-31T20:34:01.574Z,11.81
2022-10-31T20:36:29.636Z,11.81
2022-10-31T20:38:56.552Z,11.77
2022-10-31T20:41:23.079Z,11.77
2022-10-31T20:43:49.779Z,11.76
2022-10-31T20:46:18.130Z,11.79
2022-10-31T20:48:44.682Z,11.82
2022-10-31T20:53:43.010Z,11.79
2022-10-31T20:56:11.309Z,11.80
2022-10-31T20:58:38.456Z,11.79
2022-10-31T21:01:05.851Z,11.80
2022-10-31T21:03:32.821Z,11.82
2022-10-31T21:06:00.210Z,11.84
2022-10-31T21:08:27.888Z,11.84
2022-10-31T21:10:54.922Z,11.85
2022-10-31T21:13:21.825Z,11.79
2022-10-31T21:15:48.576Z,11.78
2022-10-31T21:18:15.311Z,11.75
2022-10-31T21:20:43.821Z,11.75
2022-10-31T21:23:11.038Z,11.76
2022-10-31T21:25:41.939Z,11.77
2022-10-31T21:28:14.481Z,11.69
2022-10-31T21:31:01.068Z,11.62
2022-10-31T21:33:27.621Z,11.54
2022-10-31T21:35:54.144Z,11.54
2022-10-31T21:38:20.657Z,11.47
2022-10-31T21:40:47.177Z,11.47
2022-10-31T21:43:13.732Z,11.44
2022-10-31T21:45:40.273Z,11.46
2022-10-31T21:48:06.950Z,11.48
2022-10-31T21:50:34.302Z,11.47
2022-10-31T21:53:20.788Z,11.52
2022-10-31T21:55:47.336Z,11.58
2022-10-31T21:58:13.833Z,11.57
2022-10-31T22:00:40.451Z,11.59
2022-10-31T22:03:06.985Z,11.59
2022-10-31T22:05:33.961Z,11.61
2022-10-31T22:08:00.747Z,11.59
2022-10-31T22:10:27.609Z,11.61
2022-10-31T22:12:54.164Z,11.60
2022-10-31T22:15:22.875Z,11.63
2022-10-31T22:17:49.932Z,11.64
2022-10-31T22:20:16.552Z,11.66
2022-10-31T22:22:43.157Z,11.64
2022-10-31T22:25:09.779Z,11.67
2022-10-31T22:27:38.176Z,11.71
2022-10-31T22:30:06.249Z,11.70
2022-10-31T22:32:32.940Z,11.57
2022-10-31T22:35:00.265Z,11.57
2022-10-31T22:37:26.991Z,11.59
2022-10-31T22:39:53.627Z,11.60
2022-10-31T22:42:21.272Z,11.59
2022-10-31T22:44:48.066Z,11.64
2022-10-31T22:47:15.862Z,11.62
2022-10-31T22:49:42.429Z,11.57
2022-10-31T22:52:09.068Z,11.54
2022-10-31T22:54:35.588Z,11.50
2022-10-31T22:57:02.165Z,11.50
2022-10-31T22:59:28.887Z,11.43
2022-10-31T23:01:55.617Z,11.43
2022-10-31T23:04:22.404Z,11.44
2022-10-31T23:06:49.251Z,11.45
2022-10-31T23:09:18.918Z,11.46
2022-10-31T23:11:45.747Z,11.46
2022-10-31T23:14:19.516Z,11.51
2022-10-31T23:17:17.753Z,11.46
2022-10-31T23:19:45.244Z,11.48
2022-10-31T23:22:12.076Z,11.43
2022-10-31T23:24:40.194Z,11.41
2022-10-31T23:27:09.929Z,11.37
2022-10-31T23:29:39.413Z,11.37
2022-10-31T23:32:07.545Z,11.36
2022-10-31T23:34:34.172Z,11.31
2022-10-31T23:37:00.889Z,11.33
2022-10-31T23:39:27.609Z,11.29
2022-10-31T23:41:54.325Z,11.37
2022-10-31T23:44:20.961Z,11.30
2022-10-31T23:46:47.495Z,11.32
2022-10-31T23:49:14.034Z,11.33
2022-10-31T23:51:40.612Z,11.32
2022-10-31T23:54:07.572Z,11.35
2022-10-31T23:56:34.179Z,11.33
2022-10-31T23:59:00.808Z,11.34
